Time;durP1;ratioP1;P1;durP2;ratioP2;P2;SDS_P1;SDS_P2;PMS_P1;PMS_P2;Temp;Humidity;BMP_temperature;BMP_pressure;BME280_temperature;BME280_humidity;BME280_pressure;Samples;Min_cycle;Max_cycle;Signal;HPM_P1;HPM_P2
2024/04/06 00:01:22;;;;;;;10.17;9.77;;;18.00;99.90;;;;;;5019566;28;20772;-40
2024/04/06 00:03:49;;;;;;;10.20;9.80;;;18.00;99.90;;;;;;5020283;28;20932;-41
2024/04/06 00:06:15;;;;;;;10.20;9.70;;;18.00;99.90;;;;;;5019921;28;20196;-41
2024/04/06 00:08:41;;;;;;;10.50;10.03;;;18.00;99.90;;;;;;5020918;28;20552;-44
2024/04/06 00:11:08;;;;;;;10.43;10.03;;;17.90;99.90;;;;;;5020281;28;20432;-42
2024/04/06 00:13:33;;;;;;;10.53;10.13;;;17.90;99.90;;;;;;5020655;28;20677;-42
2024/04/06 00:15:59;;;;;;;10.60;10.20;;;17.90;99.90;;;;;;5019952;28;21064;-41
2024/04/06 00:18:24;;;;;;;10.43;9.93;;;17.90;99.90;;;;;;5020027;28;20596;-41
2024/04/06 00:20:50;;;;;;;10.33;9.83;;;17.90;99.90;;;;;;5020442;28;20186;-39
2024/04/06 00:23:16;;;;;;;10.70;10.20;;;17.80;99.90;;;;;;5018847;28;20190;-43
2024/04/06 00:25:41;;;;;;;10.27;9.87;;;17.70;99.90;;;;;;5020788;28;20244;-41
2024/04/06 00:28:07;;;;;;;10.70;10.20;;;17.80;99.90;;;;;;5019310;28;20672;-39
2024/04/06 00:30:33;;;;;;;10.93;10.43;;;17.80;99.90;;;;;;5019516;28;20229;-42
2024/04/06 00:32:59;;;;;;;10.10;9.70;;;17.80;99.90;;;;;;5020495;28;20190;-40
2024/04/06 00:35:24;;;;;;;11.10;10.60;;;17.70;99.90;;;;;;5018456;28;20459;-46
2024/04/06 00:37:50;;;;;;;10.60;10.20;;;17.70;99.90;;;;;;5019972;28;20190;-40
2024/04/06 00:40:17;;;;;;;10.77;10.30;;;17.70;99.90;;;;;;5019917;28;20194;-40
2024/04/06 00:42:42;;;;;;;10.63;10.23;;;17.60;99.90;;;;;;5020148;28;20911;-40
2024/04/06 00:45:08;;;;;;;10.80;10.30;;;17.50;99.90;;;;;;5020066;28;20429;-48
2024/04/06 00:47:35;;;;;;;10.70;10.20;;;17.40;99.90;;;;;;5019948;28;20182;-43
2024/04/06 00:50:01;;;;;;;10.70;10.20;;;17.40;99.90;;;;;;5019788;28;20199;-49
2024/04/06 00:52:27;;;;;;;10.90;10.40;;;17.30;99.90;;;;;;5019917;28;20527;-49
2024/04/06 00:54:52;;;;;;;11.20;10.60;;;17.20;99.90;;;;;;5019723;28;20497;-45
2024/04/06 00:57:18;;;;;;;11.27;10.67;;;17.10;99.90;;;;;;5019932;28;20187;-47
2024/04/06 00:59:44;;;;;;;10.30;9.80;;;17.00;99.90;;;;;;5018584;28;20179;-44
2024/04/06 01:02:10;;;;;;;10.47;9.97;;;17.00;99.90;;;;;;5019894;28;20220;-51
2024/04/06 01:04:35;;;;;;;10.47;9.97;;;16.90;99.90;;;;;;5020070;28;20186;-45
2024/04/06 01:07:01;;;;;;;11.10;10.50;;;16.70;99.90;;;;;;5019846;28;20679;-46
2024/04/06 01:09:27;;;;;;;11.03;10.50;;;16.60;99.90;;;;;;5019413;28;20206;-43
2024/04/06 01:11:52;;;;;;;10.87;10.37;;;16.60;99.90;;;;;;5019512;28;20803;-50
2024/04/06 01:14:18;;;;;;;11.30;10.70;;;16.50;99.90;;;;;;5019393;28;20426;-52
2024/04/06 01:16:44;;;;;;;11.00;10.50;;;16.40;99.90;;;;;;5019175;28;20191;-43
2024/04/06 01:19:09;;;;;;;11.10;10.50;;;16.30;99.90;;;;;;5019615;28;20600;-40
2024/04/06 01:21:35;;;;;;;10.47;10.03;;;16.20;99.90;;;;;;5019299;28;20186;-44
2024/04/06 01:24:29;;;;;;;11.20;10.70;;;16.10;99.90;;;;;;5019656;28;20190;-46
2024/04/06 01:26:56;;;;;;;10.60;10.17;;;16.00;99.90;;;;;;5019082;28;20713;-41
2024/04/06 01:29:26;;;;;;;10.90;10.33;;;15.90;99.90;;;;;;5018705;28;20469;-40
2024/04/06 01:31:52;;;;;;;11.17;10.30;;;15.80;99.90;;;;;;5019027;28;20437;-39
2024/04/06 01:34:17;;;;;;;10.60;10.13;;;15.80;99.90;;;;;;5019044;28;20973;-43
2024/04/06 01:36:43;;;;;;;10.63;10.23;;;15.70;99.90;;;;;;5019332;28;20536;-42
2024/04/06 01:39:09;;;;;;;10.83;10.33;;;15.70;99.90;;;;;;5019248;28;20229;-45
2024/04/06 01:41:40;;;;;;;10.67;10.27;;;15.60;99.90;;;;;;5019414;28;20305;-39
2024/04/06 01:44:06;;;;;;;10.90;10.40;;;15.60;99.90;;;;;;5019169;28;20433;-42
2024/04/06 01:46:33;;;;;;;11.23;10.73;;;15.50;99.90;;;;;;5018242;28;20452;-40
2024/04/06 01:48:59;;;;;;;10.77;10.30;;;15.60;99.90;;;;;;5018163;28;20475;-42
2024/04/06 01:51:25;;;;;;;10.30;9.80;;;15.60;99.90;;;;;;5019186;28;20512;-38
2024/04/06 01:53:50;;;;;;;10.50;10.10;;;15.70;99.90;;;;;;5018976;28;20744;-43
2024/04/06 01:56:16;;;;;;;10.90;10.40;;;15.70;99.90;;;;;;5019013;28;20647;-40
2024/04/06 01:58:42;;;;;;;10.40;9.90;;;15.70;99.90;;;;;;5019033;28;20563;-45
2024/04/06 02:01:07;;;;;;;11.07;10.40;;;15.70;99.90;;;;;;5019056;28;20745;-40
2024/04/06 02:03:34;;;;;;;10.50;10.10;;;15.80;99.90;;;;;;5019908;28;20767;-43
2024/04/06 02:06:00;;;;;;;10.47;9.97;;;15.70;99.90;;;;;;5019999;28;20178;-42
2024/04/06 02:08:26;;;;;;;10.40;10.00;;;15.70;99.90;;;;;;5018792;28;20495;-40
2024/04/06 02:10:52;;;;;;;10.97;10.27;;;15.70;99.90;;;;;;5018739;28;20447;-39
2024/04/06 02:13:17;;;;;;;10.80;10.30;;;15.60;99.90;;;;;;5018711;28;20197;-40
2024/04/06 02:15:44;;;;;;;10.60;10.10;;;15.60;1.00;;;;;;5018510;28;20213;-42
2024/04/06 02:18:12;;;;;;;10.50;10.00;;;15.50;1.00;;;;;;5019145;28;20234;-40
2024/04/06 02:20:41;;;;;;;9.87;9.37;;;15.50;1.00;;;;;;5019013;28;21099;-43
2024/04/06 02:23:06;;;;;;;10.30;9.90;;;15.40;1.00;;;;;;5018525;28;20461;-41
2024/04/06 02:25:32;;;;;;;10.17;9.67;;;15.50;1.00;;;;;;5018906;28;21110;-44
2024/04/06 02:27:58;;;;;;;10.40;10.00;;;15.40;1.00;;;;;;5019708;28;20198;-40
2024/04/06 02:30:24;;;;;;;11.00;10.50;;;15.40;1.00;;;;;;5022125;28;20248;-39
2024/04/06 02:32:50;;;;;;;11.00;10.40;;;15.30;1.00;;;;;;5022217;28;20919;-39
2024/04/06 02:35:16;;;;;;;10.63;10.03;;;15.30;1.00;;;;;;5022296;28;20852;-39
2024/04/06 02:37:45;;;;;;;10.60;10.10;;;15.20;1.00;;;;;;5022158;28;21072;-40
2024/04/06 02:40:13;;;;;;;11.20;10.70;;;15.30;1.00;;;;;;5022046;28;20186;-43
2024/04/06 02:42:38;;;;;;;10.97;10.47;;;15.20;1.00;;;;;;5022211;28;20487;-39
2024/04/06 02:45:04;;;;;;;10.83;10.33;;;15.20;1.00;;;;;;5021130;28;20803;-40
2024/04/06 02:47:30;;;;;;;10.93;10.30;;;15.20;1.00;;;;;;5022524;28;20186;-42
2024/04/06 02:49:56;;;;;;;10.20;9.80;;;15.20;1.00;;;;;;5019647;28;20480;-45
2024/04/06 02:52:22;;;;;;;10.53;9.83;;;15.20;1.00;;;;;;5022018;28;20265;-40
2024/04/06 02:54:48;;;;;;;10.70;10.00;;;15.20;1.00;;;;;;5021925;28;20440;-41
2024/04/06 02:57:14;;;;;;;10.33;9.70;;;15.10;1.00;;;;;;5022063;28;20274;-40
2024/04/06 02:59:39;;;;;;;10.10;9.60;;;15.10;1.00;;;;;;5021005;28;20461;-41
2024/04/06 03:02:05;;;;;;;10.50;10.00;;;15.00;1.00;;;;;;5021582;28;20467;-41
2024/04/06 03:04:31;;;;;;;10.70;10.20;;;15.00;1.00;;;;;;5021258;28;20938;-40
2024/04/06 03:06:57;;;;;;;10.40;9.90;;;15.00;1.00;;;;;;5022193;28;20429;-43
2024/04/06 03:09:22;;;;;;;10.77;10.23;;;15.00;1.00;;;;;;5021866;28;20206;-44
2024/04/06 03:11:48;;;;;;;10.87;10.33;;;14.90;1.00;;;;;;5021861;28;20646;-42
2024/04/06 03:14:14;;;;;;;10.67;10.17;;;14.90;1.00;;;;;;5021104;28;20179;-44
2024/04/06 03:16:39;;;;;;;10.37;9.80;;;14.90;1.00;;;;;;5020899;28;20220;-49
2024/04/06 03:19:05;;;;;;;10.40;9.90;;;14.80;1.00;;;;;;5021195;28;20775;-46
2024/04/06 03:21:32;;;;;;;9.87;9.37;;;14.80;1.00;;;;;;5021493;28;20598;-43
2024/04/06 03:23:57;;;;;;;10.43;9.83;;;14.80;1.00;;;;;;5021001;28;20563;-48
2024/04/06 03:26:23;;;;;;;10.60;10.10;;;14.80;1.00;;;;;;5021158;28;20726;-50
2024/04/06 03:28:50;;;;;;;9.93;9.53;;;14.80;1.00;;;;;;5020685;28;20214;-44
2024/04/06 03:31:16;;;;;;;10.40;9.80;;;14.80;1.00;;;;;;5021085;28;20190;-46
2024/04/06 03:33:42;;;;;;;10.23;9.73;;;14.90;1.00;;;;;;5021305;28;20475;-47
2024/04/06 03:36:07;;;;;;;10.20;9.80;;;14.90;1.00;;;;;;5020938;28;20244;-47
2024/04/06 03:38:33;;;;;;;10.17;9.70;;;14.90;1.00;;;;;;5020804;28;20187;-44
2024/04/06 03:40:58;;;;;;;10.40;9.90;;;14.90;1.00;;;;;;5020988;28;20194;-44
2024/04/06 03:43:24;;;;;;;10.33;9.83;;;14.90;1.00;;;;;;5021274;28;20186;-44
2024/04/06 03:45:50;;;;;;;10.53;9.83;;;14.90;1.00;;;;;;5020179;28;20190;-45
2024/04/06 03:48:16;;;;;;;10.57;9.93;;;14.90;1.00;;;;;;5021019;28;20641;-43
2024/04/06 03:50:41;;;;;;;10.10;9.60;;;14.90;1.00;;;;;;5020853;28;20604;-41
2024/04/06 03:53:07;;;;;;;11.10;10.60;;;14.90;23.00;;;;;;5021749;28;20186;-43
2024/04/06 03:55:33;;;;;;;10.67;10.07;;;14.90;1.00;;;;;;5020873;28;20676;-46
2024/04/06 03:57:58;;;;;;;10.63;10.03;;;15.00;1.00;;;;;;5020920;28;20190;-45
2024/04/06 04:00:24;;;;;;;10.40;9.90;;;14.90;1.00;;;;;;5021113;28;20193;-43
2024/04/06 04:02:49;;;;;;;10.37;9.77;;;15.00;1.00;;;;;;5020368;28;20198;-50
2024/04/06 04:05:15;;;;;;;9.63;9.23;;;15.00;1.00;;;;;;5020464;28;20208;-43
2024/04/06 04:07:40;;;;;;;10.17;9.67;;;14.90;99.90;;;;;;5020134;28;20193;-47
2024/04/06 04:10:07;;;;;;;10.03;9.63;;;14.90;99.90;;;;;;5020530;28;20380;-47
2024/04/06 04:12:33;;;;;;;10.63;10.03;;;14.90;99.90;;;;;;5019919;28;20232;-49
2024/04/06 04:15:03;;;;;;;10.87;10.30;;;14.90;99.90;;;;;;5018944;28;20437;-47
2024/04/06 04:17:30;;;;;;;10.60;10.00;;;14.80;99.90;;;;;;5019123;28;21163;-46
2024/04/06 04:19:55;;;;;;;9.60;9.10;;;14.80;99.90;;;;;;5020552;28;20426;-41
2024/04/06 04:22:21;;;;;;;10.60;10.10;;;14.80;99.90;;;;;;5020129;28;21002;-46
2024/04/06 04:24:46;;;;;;;10.60;10.00;;;14.80;99.90;;;;;;5020051;28;20195;-43
2024/04/06 04:27:12;;;;;;;10.70;10.10;;;14.80;99.90;;;;;;5019637;28;20191;-46
2024/04/06 04:29:38;;;;;;;10.17;9.67;;;14.80;99.90;;;;;;5019833;28;20241;-43
2024/04/06 04:32:03;;;;;;;10.17;9.77;;;14.80;99.90;;;;;;5020089;28;20209;-47
2024/04/06 04:34:30;;;;;;;10.03;9.53;;;14.80;99.90;;;;;;5019224;28;20187;-46
2024/04/06 04:36:56;;;;;;;11.00;10.40;;;14.80;99.90;;;;;;5019081;28;20195;-43
2024/04/06 04:39:21;;;;;;;10.67;10.17;;;14.80;99.90;;;;;;5019095;28;20945;-44
2024/04/06 04:41:47;;;;;;;10.87;10.37;;;14.80;99.90;;;;;;5019685;28;20198;-46
2024/04/06 04:44:13;;;;;;;10.80;10.13;;;14.80;99.90;;;;;;5019787;28;20196;-42
2024/04/06 04:46:38;;;;;;;10.97;10.47;;;14.90;99.90;;;;;;5020203;28;20611;-41
2024/04/06 04:49:05;;;;;;;11.27;10.67;;;14.90;99.90;;;;;;5019862;28;20301;-40
2024/04/06 04:51:30;;;;;;;10.03;9.47;;;14.90;99.90;;;;;;5019019;28;20194;-41
2024/04/06 04:53:56;;;;;;;9.80;9.40;;;14.90;99.90;;;;;;5019748;28;20879;-44
2024/04/06 04:56:21;;;;;;;9.77;9.27;;;15.00;99.90;;;;;;5020145;28;20210;-40
2024/04/06 04:58:47;;;;;;;10.27;9.77;;;15.00;99.90;;;;;;5018423;28;20197;-38
2024/04/06 05:01:16;;;;;;;10.80;10.30;;;15.00;99.90;;;;;;5017778;28;20182;-38
2024/04/06 05:03:42;;;;;;;10.70;10.10;;;15.10;99.90;;;;;;5019923;28;20417;-40
2024/04/06 05:06:07;;;;;;;10.30;9.80;;;15.10;99.90;;;;;;5019148;28;20471;-41
2024/04/06 05:08:33;;;;;;;10.90;10.30;;;15.20;76.90;;;;;;5019393;28;20189;-41
2024/04/06 05:10:58;;;;;;;10.80;10.10;;;15.20;99.90;;;;;;5019299;28;20214;-44
2024/04/06 05:13:24;;;;;;;10.60;10.10;;;15.20;88.90;;;;;;5018968;28;20672;-44
2024/04/06 05:15:52;;;;;;;11.57;10.50;;;15.30;44.70;;;;;;5019208;28;20190;-41
2024/04/06 05:18:19;;;;;;;10.70;10.10;;;15.30;38.20;;;;;;5018795;28;20784;-46
2024/04/06 05:20:58;;;;;;;10.60;9.80;;;15.40;26.70;;;;;;5017725;28;20686;-46
2024/04/06 05:23:27;;;;;;;12.60;11.80;;;15.40;1.00;;;;;;5020080;28;20833;-45
2024/04/06 05:25:53;;;;;;;12.33;11.63;;;15.40;1.00;;;;;;5019803;28;20930;-43
2024/04/06 05:28:21;;;;;;;13.03;12.03;;;15.50;1.00;;;;;;5019527;28;20505;-45
2024/04/06 05:30:48;;;;;;;11.80;11.00;;;15.50;1.00;;;;;;5019490;28;20476;-46
2024/04/06 05:33:14;;;;;;;13.87;12.97;;;15.50;15.20;;;;;;5019331;28;20448;-45
2024/04/06 05:35:44;;;;;;;13.70;12.90;;;15.60;1.00;;;;;;5019345;28;20460;-44
2024/04/06 05:38:10;;;;;;;12.97;12.27;;;15.60;1.00;;;;;;5019341;28;20419;-47
2024/04/06 05:40:42;;;;;;;13.60;12.80;;;15.70;1.00;;;;;;5019566;28;20911;-43
2024/04/06 05:43:08;;;;;;;10.63;10.13;;;15.80;1.00;;;;;;5018773;28;20792;-48
2024/04/06 05:45:38;;;;;;;10.97;10.47;;;15.80;1.00;;;;;;5017825;28;20432;-46
2024/04/06 05:48:04;;;;;;;10.50;10.00;;;15.80;1.00;;;;;;5018936;28;20482;-42
2024/04/06 05:50:34;;;;;;;10.70;10.20;;;15.80;1.00;;;;;;5018970;28;20469;-45
2024/04/06 05:53:00;;;;;;;10.33;9.93;;;15.80;1.00;;;;;;5019192;28;20891;-47
2024/04/06 05:55:26;;;;;;;12.20;11.50;;;15.90;1.00;;;;;;5020104;28;20508;-49
2024/04/06 05:57:52;;;;;;;12.00;11.27;;;15.90;1.00;;;;;;5020323;28;21061;-43
2024/04/06 06:00:18;;;;;;;11.07;10.57;;;15.90;1.00;;;;;;5018790;28;20449;-46
2024/04/06 06:02:44;;;;;;;10.80;10.30;;;15.90;1.00;;;;;;5020915;28;20595;-43
2024/04/06 06:05:10;;;;;;;10.20;9.70;;;16.00;1.00;;;;;;5024038;28;20436;-48
2024/04/06 06:07:36;;;;;;;10.47;9.97;;;16.10;1.00;;;;;;5024142;28;21009;-45
2024/04/06 06:10:03;;;;;;;10.40;9.80;;;16.30;1.00;;;;;;5023988;28;20217;-51
2024/04/06 06:12:28;;;;;;;10.70;10.10;;;16.30;1.00;;;;;;5023428;28;20417;-43
2024/04/06 06:14:54;;;;;;;10.57;10.07;;;16.30;1.00;;;;;;5019522;28;20787;-38
2024/04/06 06:17:20;;;;;;;10.10;9.60;;;16.40;1.00;;;;;;5021551;28;20193;-39
2024/04/06 06:19:46;;;;;;;10.60;10.10;;;16.50;1.00;;;;;;5022773;28;20472;-39
2024/04/06 06:22:11;;;;;;;10.57;10.00;;;16.50;1.00;;;;;;5022691;28;20182;-37
2024/04/06 06:24:37;;;;;;;10.30;9.80;;;16.50;1.00;;;;;;5022505;28;20194;-38
2024/04/06 06:27:03;;;;;;;9.83;9.30;;;16.50;1.00;;;;;;5022633;28;20191;-41
2024/04/06 06:29:28;;;;;;;9.87;9.43;;;16.60;1.00;;;;;;5022623;28;20205;-40
2024/04/06 06:31:54;;;;;;;9.73;9.30;;;16.60;1.00;;;;;;5022755;28;20260;-39
2024/04/06 06:34:20;;;;;;;9.17;8.70;;;16.60;1.00;;;;;;5022165;28;20322;-40
2024/04/06 06:36:49;;;;;;;10.70;10.20;;;16.70;1.00;;;;;;5022646;28;20182;-40
2024/04/06 06:39:15;;;;;;;10.77;10.13;;;16.70;1.00;;;;;;5022316;28;20555;-39
2024/04/06 06:41:41;;;;;;;9.70;9.23;;;16.60;1.00;;;;;;5021572;28;20868;-38
2024/04/06 06:44:07;;;;;;;9.83;9.20;;;16.70;1.00;;;;;;5021803;28;20437;-38
2024/04/06 06:46:33;;;;;;;10.43;9.83;;;16.70;1.00;;;;;;5020957;28;20413;-38
2024/04/06 06:48:58;;;;;;;10.20;9.80;;;16.80;1.00;;;;;;5021864;28;20267;-39
2024/04/06 06:51:25;;;;;;;10.50;9.90;;;16.80;1.00;;;;;;5022283;28;20187;-39
2024/04/06 06:53:50;;;;;;;9.90;9.40;;;17.00;1.00;;;;;;5022007;28;20532;-40
2024/04/06 06:56:16;;;;;;;10.33;9.83;;;17.10;1.00;;;;;;5020728;28;20421;-41
2024/04/06 06:58:42;;;;;;;10.40;9.90;;;17.20;1.00;;;;;;5036435;28;20183;-45
2024/04/06 07:01:07;;;;;;;9.50;9.10;;;17.20;1.00;;;;;;5021756;28;20190;-42
2024/04/06 07:03:33;;;;;;;9.90;9.50;;;17.30;1.00;;;;;;5021956;28;20225;-41
2024/04/06 07:05:58;;;;;;;10.23;9.73;;;17.40;1.00;;;;;;5021596;28;20182;-40
2024/04/06 07:08:24;;;;;;;9.67;9.27;;;17.50;1.00;;;;;;5021889;28;20688;-41
2024/04/06 07:10:50;;;;;;;9.70;9.30;;;17.60;1.00;;;;;;5021432;28;20202;-42
2024/04/06 07:13:15;;;;;;;10.00;9.50;;;17.80;1.00;;;;;;5020418;28;20277;-41
2024/04/06 07:15:41;;;;;;;10.50;10.00;;;18.00;1.00;;;;;;5020513;28;20281;-39
2024/04/06 07:18:06;;;;;;;9.80;9.30;;;18.20;1.00;;;;;;5021607;28;20266;-40
2024/04/06 07:20:32;;;;;;;9.97;9.50;;;18.20;1.00;;;;;;5021661;28;20187;-41
2024/04/06 07:22:57;;;;;;;9.90;9.40;;;18.20;1.00;;;;;;5021518;28;20186;-38
2024/04/06 07:25:23;;;;;;;10.13;9.63;;;18.40;1.00;;;;;;5021559;28;20557;-44
2024/04/06 07:27:49;;;;;;;9.73;9.23;;;18.60;1.00;;;;;;5019914;28;20387;-44
2024/04/06 07:30:14;;;;;;;9.80;9.30;;;18.70;1.00;;;;;;5021191;28;20219;-43
2024/04/06 07:32:40;;;;;;;10.13;9.63;;;18.90;1.00;;;;;;5021649;28;20587;-38
2024/04/06 07:35:09;;;;;;;10.03;9.63;;;19.10;1.00;;;;;;5021172;28;20197;-39
2024/04/06 07:37:35;;;;;;;10.73;10.23;;;19.10;1.00;;;;;;5021498;28;20178;-42
2024/04/06 07:40:00;;;;;;;10.40;9.70;;;19.20;1.00;;;;;;5021259;28;20762;-40
2024/04/06 07:42:26;;;;;;;9.90;9.50;;;19.30;1.00;;;;;;5020402;28;20183;-42
2024/04/06 07:44:51;;;;;;;10.90;10.30;;;19.50;1.00;;;;;;5020327;28;20198;-39
2024/04/06 07:47:17;;;;;;;9.53;9.13;;;19.60;99.90;;;;;;5020829;28;20559;-45
2024/04/06 07:49:44;;;;;;;10.03;9.43;;;19.70;99.90;;;;;;5020975;28;20238;-41
2024/04/06 07:52:09;;;;;;;10.07;9.67;;;19.80;99.90;;;;;;5021404;28;20422;-39
2024/04/06 07:54:35;;;;;;;10.50;10.00;;;19.90;99.90;;;;;;5020916;28;20595;-47
2024/04/06 07:57:02;;;;;;;10.80;10.17;;;20.20;99.90;;;;;;5020832;28;20186;-44
2024/04/06 07:59:28;;;;;;;10.13;9.63;;;20.30;99.90;;;;;;5019420;28;20213;-41
2024/04/06 08:01:54;;;;;;;9.60;9.10;;;20.20;99.90;;;;;;5020704;28;20421;-40
2024/04/06 08:04:20;;;;;;;10.37;9.77;;;20.40;99.90;;;;;;5020724;28;20448;-44
2024/04/06 08:06:45;;;;;;;9.60;9.20;;;20.50;99.90;;;;;;5020706;28;20194;-39
2024/04/06 08:09:11;;;;;;;10.20;9.70;;;20.80;99.90;;;;;;5020589;28;20211;-41
2024/04/06 08:11:37;;;;;;;10.07;9.57;;;20.90;99.90;;;;;;5020682;28;20747;-47
2024/04/06 08:14:02;;;;;;;9.77;9.37;;;20.90;99.90;;;;;;5019631;28;20536;-45
2024/04/06 08:16:28;;;;;;;9.07;8.57;;;21.00;99.90;;;;;;5020829;28;20501;-50
2024/04/06 08:18:54;;;;;;;10.50;10.00;;;21.30;99.90;;;;;;5020500;28;20889;-45
2024/04/06 08:21:19;;;;;;;9.90;9.50;;;21.40;99.90;;;;;;5020996;28;20820;-49
2024/04/06 08:23:45;;;;;;;10.73;10.23;;;21.60;99.90;;;;;;5020164;28;20183;-48
2024/04/06 08:26:11;;;;;;;9.90;9.50;;;21.60;99.90;;;;;;5018155;28;20570;-47
2024/04/06 08:28:36;;;;;;;10.80;10.30;;;21.60;99.90;;;;;;5020114;28;20178;-45
2024/04/06 08:31:03;;;;;;;9.80;9.40;;;21.60;99.90;;;;;;5020279;28;20230;-44
2024/04/06 08:33:29;;;;;;;10.00;9.50;;;21.80;99.90;;;;;;5020456;28;20232;-49
2024/04/06 08:35:59;;;;;;;10.03;9.63;;;22.00;99.90;;;;;;5020429;28;20406;-49
2024/04/06 08:38:24;;;;;;;9.50;9.00;;;22.30;99.90;;;;;;5021251;28;20426;-49
2024/04/06 08:40:51;;;;;;;9.90;9.50;;;22.50;99.90;;;;;;5021625;28;20911;-51
2024/04/06 08:43:18;;;;;;;10.10;9.60;;;22.80;99.90;;;;;;5019961;28;20186;-47
2024/04/06 08:45:45;;;;;;;10.00;9.60;;;23.10;99.90;;;;;;5021545;28;20421;-47
2024/04/06 08:48:12;;;;;;;10.00;9.40;;;23.30;99.90;;;;;;5021405;28;20570;-47
2024/04/06 08:50:38;;;;;;;9.23;8.83;;;23.40;99.90;;;;;;5021632;28;20476;-46
2024/04/06 08:53:07;;;;;;;9.90;9.50;;;23.50;99.90;;;;;;5021276;28;20413;-49
2024/04/06 08:55:33;;;;;;;9.90;9.50;;;23.90;99.90;;;;;;5021289;28;20190;-47
2024/04/06 08:57:59;;;;;;;9.80;9.40;;;24.00;99.90;;;;;;5021232;28;20420;-48
2024/04/06 09:00:27;;;;;;;10.13;9.73;;;24.10;99.90;;;;;;5021993;28;20414;-49
2024/04/06 09:02:53;;;;;;;8.40;8.10;;;24.60;99.90;;;;;;5019883;28;20201;-43
2024/04/06 09:05:19;;;;;;;10.00;9.60;;;25.30;99.90;;;;;;5021461;28;20832;-45
2024/04/06 09:07:49;;;;;;;9.23;8.83;;;25.70;99.90;;;;;;5021657;28;20890;-45
2024/04/06 09:10:14;;;;;;;10.20;9.70;;;25.90;99.90;;;;;;5021092;28;20479;-46
2024/04/06 09:12:41;;;;;;;9.60;9.20;;;25.70;99.90;;;;;;5020074;28;20429;-44
2024/04/06 09:15:12;;;;;;;9.73;9.33;;;25.70;99.90;;;;;;5021062;28;20260;-43
2024/04/06 09:17:38;;;;;;;9.30;9.00;;;26.30;99.90;;;;;;5020972;28;20708;-48
2024/04/06 09:20:05;;;;;;;9.33;8.93;;;26.40;99.90;;;;;;5021157;28;20494;-46
2024/04/06 09:22:31;;;;;;;9.67;9.27;;;26.20;99.90;;;;;;5020234;28;21069;-48
2024/04/06 09:24:56;;;;;;;9.43;9.03;;;26.40;99.90;;;;;;5020775;28;20429;-42
2024/04/06 09:27:22;;;;;;;9.70;9.30;;;26.70;99.90;;;;;;5021287;28;20190;-43
2024/04/06 09:29:47;;;;;;;9.53;9.13;;;26.10;99.90;;;;;;5020822;28;20229;-46
2024/04/06 09:32:16;;;;;;;9.20;8.80;;;26.40;99.90;;;;;;5021225;28;20179;-49
2024/04/06 09:34:52;;;;;;;8.70;8.40;;;25.50;99.90;;;;;;5021290;28;20187;-51
2024/04/06 09:37:21;;;;;;;9.90;9.50;;;25.90;99.90;;;;;;5021689;28;20413;-44
2024/04/06 09:39:47;;;;;;;9.47;9.07;;;26.60;99.90;;;;;;5023360;28;21056;-44
2024/04/06 09:42:14;;;;;;;9.23;8.83;;;27.50;99.90;;;;;;5022825;28;20919;-51
2024/04/06 09:44:42;;;;;;;9.47;9.07;;;27.70;99.90;;;;;;5023044;28;20465;-47
2024/04/06 09:47:10;;;;;;;8.83;8.47;;;27.30;99.90;;;;;;5023167;28;20515;-48
2024/04/06 09:49:36;;;;;;;9.60;9.20;;;27.50;99.90;;;;;;5023125;28;21178;-49
2024/04/06 09:52:02;;;;;;;9.47;9.07;;;27.90;99.90;;;;;;5023267;28;20425;-47
2024/04/06 09:54:28;;;;;;;9.13;8.70;;;27.60;99.90;;;;;;5023217;28;20174;-44
2024/04/06 09:56:54;;;;;;;9.37;8.87;;;26.90;99.90;;;;;;5023102;28;20413;-50
2024/04/06 09:59:26;;;;;;;9.90;9.50;;;27.00;99.90;;;;;;5023107;28;20439;-48
2024/04/06 10:01:59;;;;;;;9.53;9.13;;;27.40;99.90;;;;;;5022654;28;20852;-49
2024/04/06 10:04:26;;;;;;;8.33;8.03;;;27.70;99.90;;;;;;5022713;28;20413;-46
2024/04/06 10:06:54;;;;;;;9.40;9.00;;;28.00;99.90;;;;;;5022761;28;20482;-43
2024/04/06 10:09:20;;;;;;;8.97;8.67;;;28.50;99.90;;;;;;5022812;28;21001;-45
2024/04/06 10:11:45;;;;;;;9.40;9.00;;;28.70;99.90;;;;;;5022932;28;20516;-46
2024/04/06 10:14:11;;;;;;;9.13;8.77;;;28.90;99.90;;;;;;5021660;28;20189;-48
2024/04/06 10:16:39;;;;;;;9.40;9.00;;;29.30;99.90;;;;;;5023653;28;20244;-51
2024/04/06 10:19:07;;;;;;;8.37;8.07;;;29.90;99.90;;;;;;5020995;28;20249;-49
2024/04/06 10:21:34;;;;;;;9.13;8.73;;;30.30;99.90;;;;;;5021943;28;20811;-45
2024/04/06 10:24:10;;;;;;;9.60;9.20;;;30.70;99.90;;;;;;5022722;28;20915;-47
2024/04/06 10:26:45;;;;;;;9.93;9.40;;;31.00;99.90;;;;;;5022701;28;20467;-51
2024/04/06 10:29:12;;;;;;;10.03;9.53;;;31.30;99.90;;;;;;5022096;28;20467;-46
2024/04/06 10:31:40;;;;;;;9.13;8.73;;;31.20;99.90;;;;;;5022339;28;20413;-40
2024/04/06 10:34:06;;;;;;;9.07;8.73;;;31.30;99.90;;;;;;5022562;28;20432;-41
2024/04/06 10:36:32;;;;;;;9.77;9.37;;;31.70;99.90;;;;;;5022272;28;20413;-41
2024/04/06 10:38:57;;;;;;;10.03;9.63;;;31.80;99.90;;;;;;5022390;28;20182;-42
2024/04/06 10:41:23;;;;;;;9.67;9.27;;;32.30;99.90;;;;;;5022262;28;20196;-42
2024/04/06 10:43:50;;;;;;;9.70;9.30;;;32.80;99.90;;;;;;5021817;28;20261;-46
2024/04/06 10:46:16;;;;;;;9.80;9.40;;;33.30;99.90;;;;;;5021489;28;20186;-46
2024/04/06 10:48:43;;;;;;;8.90;8.50;;;33.90;99.90;;;;;;5021471;28;20490;-50
2024/04/06 10:51:09;;;;;;;9.90;9.50;;;34.10;99.90;;;;;;5021905;28;20297;-47
2024/04/06 10:53:35;;;;;;;9.67;9.27;;;34.10;99.90;;;;;;5022134;28;20417;-44
2024/04/06 10:56:03;;;;;;;8.87;8.37;;;33.20;99.90;;;;;;5022522;28;20269;-46
2024/04/06 10:58:29;;;;;;;8.67;8.30;;;33.50;99.90;;;;;;5021642;28;20428;-49
2024/04/06 11:00:54;;;;;;;9.90;9.50;;;34.10;99.90;;;;;;5019635;28;20978;-46
2024/04/06 11:03:21;;;;;;;9.77;9.37;;;34.30;99.90;;;;;;5021724;28;20269;-49
2024/04/06 11:05:47;;;;;;;10.17;9.67;;;34.60;99.90;;;;;;5021524;28;20232;-48
2024/04/06 11:08:13;;;;;;;10.07;9.57;;;34.90;99.90;;;;;;5021841;28;20425;-52
2024/04/06 11:10:39;;;;;;;9.67;9.27;;;35.10;99.90;;;;;;5021465;28;20205;-44
2024/04/06 11:13:04;;;;;;;8.73;8.43;;;35.10;99.90;;;;;;5021371;28;20520;-52
2024/04/06 11:15:30;;;;;;;10.20;9.70;;;35.40;99.90;;;;;;5019249;28;20174;-48
2024/04/06 11:17:57;;;;;;;8.80;8.50;;;35.10;99.90;;;;;;5021593;28;20222;-45
2024/04/06 11:20:24;;;;;;;9.30;8.80;;;34.80;99.90;;;;;;5021815;28;20196;-43
2024/04/06 11:22:50;;;;;;;9.23;8.83;;;34.60;99.90;;;;;;5021556;28;20421;-46
2024/04/06 11:25:17;;;;;;;9.30;9.00;;;34.90;99.90;;;;;;5021258;28;20468;-48
2024/04/06 11:27:52;;;;;;;9.10;8.70;;;35.20;99.90;;;;;;5021763;28;20445;-40
2024/04/06 11:30:20;;;;;;;9.20;8.90;;;34.90;99.90;;;;;;5020047;28;20819;-42
2024/04/06 11:32:54;;;;;;;9.33;8.93;;;35.00;99.90;;;;;;5021047;28;20783;-42
2024/04/06 11:35:19;;;;;;;9.47;9.07;;;35.20;99.90;;;;;;5021469;28;20464;-39
2024/04/06 11:37:45;;;;;;;9.57;9.17;;;34.60;99.90;;;;;;5021330;28;20422;-40
2024/04/06 11:40:11;;;;;;;9.27;8.87;;;34.70;99.90;;;;;;5021457;28;20190;-43
2024/04/06 11:42:37;;;;;;;9.07;8.77;;;35.10;99.90;;;;;;5021184;28;20191;-40
2024/04/06 11:45:04;;;;;;;9.57;9.17;;;35.20;99.90;;;;;;5020896;28;20425;-42
2024/04/06 11:47:30;;;;;;;9.10;8.70;;;35.50;99.90;;;;;;5021257;28;20256;-48
2024/04/06 11:49:56;;;;;;;10.30;9.80;;;35.80;99.90;;;;;;5020886;28;20907;-41
2024/04/06 11:52:21;;;;;;;9.40;9.00;;;35.50;99.90;;;;;;5021333;28;20428;-41
2024/04/06 11:54:47;;;;;;;9.00;8.67;;;35.60;99.90;;;;;;5020739;28;20179;-45
2024/04/06 11:57:12;;;;;;;9.30;9.00;;;35.60;99.90;;;;;;5020182;28;20205;-42
2024/04/06 11:59:38;;;;;;;9.80;9.40;;;36.00;99.90;;;;;;5020554;28;20312;-46
2024/04/06 12:02:04;;;;;;;9.37;8.97;;;35.80;99.90;;;;;;5019700;28;20383;-43
2024/04/06 12:04:29;;;;;;;9.27;8.77;;;36.20;99.90;;;;;;5020768;28;20178;-45
2024/04/06 12:06:56;;;;;;;9.70;9.30;;;35.90;99.90;;;;;;5020489;28;20633;-41
2024/04/06 12:09:22;;;;;;;9.47;9.17;;;36.40;99.90;;;;;;5020602;28;20213;-38
2024/04/06 12:11:48;;;;;;;9.73;9.33;;;35.40;99.90;;;;;;5020844;28;20911;-42
2024/04/06 12:14:13;;;;;;;9.13;8.73;;;35.80;99.90;;;;;;5020186;28;20187;-43
2024/04/06 12:16:39;;;;;;;9.10;8.70;;;35.80;99.90;;;;;;5020822;28;20533;-43
2024/04/06 12:19:05;;;;;;;9.57;9.17;;;36.00;99.90;;;;;;5020000;28;20234;-46
2024/04/06 12:21:30;;;;;;;9.60;9.30;;;36.50;99.90;;;;;;5020712;28;20280;-41
2024/04/06 12:23:56;;;;;;;9.50;9.10;;;36.80;99.90;;;;;;5020440;28;20178;-43
2024/04/06 12:26:22;;;;;;;9.67;9.27;;;36.60;99.90;;;;;;5019654;28;20183;-43
2024/04/06 12:28:48;;;;;;;9.70;9.30;;;36.80;99.90;;;;;;5020511;28;20213;-45
2024/04/06 12:31:16;;;;;;;9.30;8.90;;;37.10;99.90;;;;;;5020344;28;20194;-43
2024/04/06 12:33:41;;;;;;;9.23;8.83;;;37.30;99.90;;;;;;5019899;28;20536;-45
2024/04/06 12:36:07;;;;;;;9.57;9.17;;;37.40;99.90;;;;;;5020453;28;20572;-44